Time;durP1;ratioP1;P1;durP2;ratioP2;P2;SDS_P1;SDS_P2;PMS_P1;PMS_P2;Temp;Humidity;BMP_temperature;BMP_pressure;BME280_temperature;BME280_humidity;BME280_pressure;Samples;Min_cycle;Max_cycle;Signal;HPM_P1;HPM_P2
2023/08/21 04:01:58;;;;;;;2.23;2.23;;;16.80;99.90;;;;;;6130790;23;20459;-69
2023/08/21 04:04:24;;;;;;;2.67;2.50;;;16.80;99.90;;;;;;6154647;23;20434;-71
2023/08/21 04:06:52;;;;;;;2.33;2.23;;;16.70;99.90;;;;;;6153843;23;20946;-71
2023/08/21 04:09:19;;;;;;;3.07;2.97;;;16.70;99.90;;;;;;6154737;23;20754;-71
2023/08/21 04:11:45;;;;;;;2.63;2.47;;;16.70;99.90;;;;;;6154257;23;20446;-71
2023/08/21 04:14:12;;;;;;;3.43;3.13;;;16.70;99.90;;;;;;6152508;23;20455;-70
2023/08/21 04:16:39;;;;;;;3.83;3.47;;;16.80;99.90;;;;;;6153632;23;20421;-70
2023/08/21 04:19:07;;;;;;;2.73;2.60;;;16.70;99.90;;;;;;6152654;23;20415;-70
2023/08/21 04:21:34;;;;;;;6.20;3.60;;;16.80;99.90;;;;;;6153622;23;20934;-70
2023/08/21 04:24:00;;;;;;;4.67;3.30;;;16.80;99.90;;;;;;6153449;23;20458;-70
2023/08/21 04:26:27;;;;;;;5.47;2.83;;;16.80;99.90;;;;;;6153545;23;20425;-70
2023/08/21 04:28:54;;;;;;;3.10;2.93;;;16.90;99.90;;;;;;6153273;23;20875;-70
2023/08/21 04:31:20;;;;;;;3.80;3.53;;;16.90;99.90;;;;;;6153317;23;20934;-70
2023/08/21 04:33:47;;;;;;;7.20;3.83;;;16.90;99.90;;;;;;6153403;23;20420;-70
2023/08/21 04:36:18;;;;;;;4.77;3.50;;;16.90;99.90;;;;;;6153428;23;20426;-69
2023/08/21 04:38:45;;;;;;;4.33;3.97;;;16.90;99.90;;;;;;6152793;23;20422;-70
2023/08/21 04:41:11;;;;;;;4.73;3.73;;;17.00;99.90;;;;;;6151413;23;20419;-70
2023/08/21 04:43:38;;;;;;;3.77;3.43;;;17.00;99.90;;;;;;6148689;23;20448;-70
2023/08/21 04:46:05;;;;;;;4.20;3.90;;;17.00;99.90;;;;;;6150471;23;20423;-70
2023/08/21 04:48:32;;;;;;;5.70;3.63;;;17.00;99.90;;;;;;6152749;23;20434;-70
2023/08/21 04:50:59;;;;;;;6.80;3.50;;;17.10;99.90;;;;;;6152882;23;20419;-70
2023/08/21 04:53:27;;;;;;;4.43;3.67;;;17.30;99.90;;;;;;6153589;23;20424;-70
2023/08/21 04:55:53;;;;;;;3.70;3.20;;;17.40;99.90;;;;;;6152595;23;20443;-70
2023/08/21 04:58:20;;;;;;;2.73;2.60;;;17.40;99.90;;;;;;6163318;23;20416;-71
2023/08/21 05:00:47;;;;;;;8.80;4.30;;;17.50;99.90;;;;;;6152379;23;20424;-71
2023/08/21 05:03:13;;;;;;;3.77;3.53;;;17.50;99.90;;;;;;6152623;23;20424;-70
2023/08/21 05:05:40;;;;;;;3.03;2.90;;;17.50;99.90;;;;;;6151805;23;20444;-70
2023/08/21 05:08:07;;;;;;;2.93;2.83;;;17.50;99.90;;;;;;6152206;23;20429;-70
2023/08/21 05:10:35;;;;;;;3.90;3.77;;;17.50;99.90;;;;;;6151674;23;20419;-70
2023/08/21 05:13:02;;;;;;;2.77;2.67;;;17.60;99.90;;;;;;6153046;23;20443;-71
2023/08/21 05:15:28;;;;;;;2.60;2.40;;;17.60;99.90;;;;;;6152990;23;20448;-70
2023/08/21 05:17:55;;;;;;;5.00;2.93;;;17.60;99.90;;;;;;6153741;23;20426;-71
2023/08/21 05:20:22;;;;;;;4.00;2.33;;;17.70;99.90;;;;;;6152628;23;20431;-70
2023/08/21 05:22:48;;;;;;;3.23;2.97;;;17.70;99.90;;;;;;6153377;23;20763;-70
2023/08/21 05:25:15;;;;;;;2.10;2.10;;;17.70;99.90;;;;;;6152251;23;20851;-71
2023/08/21 05:27:43;;;;;;;2.43;2.10;;;17.80;99.90;;;;;;6152236;23;21048;-70
2023/08/21 05:30:12;;;;;;;2.60;2.50;;;17.80;99.90;;;;;;6152266;23;20761;-70
2023/08/21 05:32:38;;;;;;;2.53;2.30;;;17.80;99.90;;;;;;6152422;23;20741;-71
2023/08/21 05:35:08;;;;;;;2.17;2.07;;;17.90;99.90;;;;;;6153627;23;20463;-70
2023/08/21 05:37:34;;;;;;;2.93;1.93;;;17.90;99.90;;;;;;6153297;23;20480;-71
2023/08/21 05:40:03;;;;;;;1.90;1.80;;;17.90;99.90;;;;;;6152581;23;20428;-70
2023/08/21 05:42:30;;;;;;;5.87;2.03;;;17.90;99.90;;;;;;6152297;23;20809;-70
2023/08/21 05:44:58;;;;;;;1.20;1.20;;;18.00;99.90;;;;;;6152527;23;20475;-70
2023/08/21 05:47:26;;;;;;;3.10;1.73;;;18.00;99.90;;;;;;6152442;23;20429;-70
2023/08/21 05:49:53;;;;;;;1.23;1.23;;;18.10;99.90;;;;;;6150684;23;20515;-71
2023/08/21 05:52:20;;;;;;;1.80;1.77;;;18.10;99.90;;;;;;6152338;23;20544;-71
2023/08/21 05:54:47;;;;;;;1.00;1.00;;;18.10;99.90;;;;;;6153054;23;20436;-71
2023/08/21 05:57:13;;;;;;;3.77;2.57;;;18.20;99.90;;;;;;6153118;23;20433;-70
2023/08/21 05:59:44;;;;;;;2.57;1.60;;;18.20;99.90;;;;;;6152791;23;20420;-71
2023/08/21 06:02:13;;;;;;;1.50;1.40;;;18.20;99.90;;;;;;6154304;23;20443;-71
2023/08/21 06:04:41;;;;;;;1.23;1.20;;;18.30;99.90;;;;;;6154342;23;20453;-71
2023/08/21 06:07:08;;;;;;;2.07;1.03;;;18.30;99.90;;;;;;6154711;23;20429;-71
2023/08/21 06:09:35;;;;;;;1.20;1.20;;;18.30;99.90;;;;;;6153721;23;20928;-71
2023/08/21 06:12:02;;;;;;;1.50;1.50;;;18.40;99.90;;;;;;6154590;23;20421;-72
2023/08/21 06:14:29;;;;;;;1.67;1.60;;;18.40;99.90;;;;;;6152958;23;20449;-72
2023/08/21 06:16:57;;;;;;;1.37;1.37;;;18.90;99.90;;;;;;6154762;23;20425;-71
2023/08/21 06:19:25;;;;;;;7.20;1.40;;;19.40;99.90;;;;;;6153556;23;20419;-72
2023/08/21 06:21:52;;;;;;;2.00;0.93;;;20.30;99.90;;;;;;6154790;23;20757;-72
2023/08/21 06:24:19;;;;;;;2.10;1.43;;;21.20;99.90;;;;;;6153944;23;20464;-72
2023/08/21 06:26:45;;;;;;;0.87;0.63;;;22.00;99.90;;;;;;6154981;23;20421;-72
2023/08/21 06:29:12;;;;;;;1.70;0.90;;;22.70;99.90;;;;;;6153643;23;20425;-71
2023/08/21 06:31:39;;;;;;;0.70;0.70;;;23.40;99.90;;;;;;6154314;23;20748;-72
2023/08/21 06:34:06;;;;;;;1.90;0.87;;;23.50;99.90;;;;;;6154594;23;20434;-71
2023/08/21 06:36:34;;;;;;;2.57;1.30;;;23.80;99.90;;;;;;6152638;23;20914;-72
2023/08/21 06:39:00;;;;;;;1.80;0.87;;;23.90;99.90;;;;;;6154577;23;20425;-71
2023/08/21 06:41:27;;;;;;;0.83;0.83;;;23.50;99.90;;;;;;6154451;23;20419;-71
2023/08/21 06:43:54;;;;;;;2.63;1.00;;;23.00;99.90;;;;;;6154803;23;20478;-71
2023/08/21 06:46:21;;;;;;;1.03;0.80;;;22.90;99.90;;;;;;6153684;23;20423;-71
2023/08/21 06:48:50;;;;;;;1.13;0.80;;;23.00;99.90;;;;;;6156864;23;20485;-72
2023/08/21 06:51:16;;;;;;;1.37;0.80;;;23.50;99.90;;;;;;6166389;23;20456;-71
2023/08/21 06:53:44;;;;;;;1.50;0.97;;;24.00;99.90;;;;;;6154549;23;20426;-71
2023/08/21 06:56:11;;;;;;;3.50;0.73;;;24.40;99.90;;;;;;6154790;23;20419;-71
2023/08/21 06:58:38;;;;;;;3.60;0.70;;;24.80;99.90;;;;;;6150319;23;20426;-72
2023/08/21 07:01:04;;;;;;;0.73;0.70;;;25.00;99.90;;;;;;6153029;23;20754;-72
2023/08/21 07:03:31;;;;;;;0.63;0.63;;;25.10;99.90;;;;;;6153138;23;20425;-71
2023/08/21 07:05:59;;;;;;;0.67;0.67;;;25.10;99.90;;;;;;6153952;23;20559;-71
2023/08/21 07:08:26;;;;;;;1.50;1.00;;;25.10;99.90;;;;;;6154214;23;20422;-71
2023/08/21 07:10:55;;;;;;;0.70;0.70;;;25.20;99.90;;;;;;6153761;23;20422;-72
2023/08/21 07:13:22;;;;;;;0.50;0.50;;;25.20;99.90;;;;;;6153782;23;20419;-71
2023/08/21 07:15:49;;;;;;;0.73;0.73;;;24.50;99.90;;;;;;6154255;23;20442;-71
2023/08/21 07:18:15;;;;;;;0.90;0.90;;;23.90;99.90;;;;;;6153584;23;20422;-71
2023/08/21 07:20:42;;;;;;;1.47;1.10;;;23.40;99.90;;;;;;6154728;23;20421;-71
2023/08/21 07:23:09;;;;;;;0.70;0.70;;;23.10;99.90;;;;;;6153881;23;20487;-71
2023/08/21 07:25:35;;;;;;;0.50;0.50;;;23.30;99.90;;;;;;6163334;23;20446;-71
2023/08/21 07:28:05;;;;;;;1.87;1.07;;;23.50;99.90;;;;;;6153766;23;20765;-71
2023/08/21 07:30:31;;;;;;;0.83;0.80;;;23.80;99.90;;;;;;6154244;23;20419;-71
2023/08/21 07:32:58;;;;;;;1.33;0.77;;;24.00;99.90;;;;;;6152830;23;20419;-71
2023/08/21 07:35:25;;;;;;;2.43;0.90;;;24.00;99.90;;;;;;6153266;23;20761;-70
2023/08/21 07:37:51;;;;;;;1.17;1.00;;;24.10;99.90;;;;;;6154201;23;20419;-71
2023/08/21 07:40:18;;;;;;;4.30;1.23;;;24.10;99.90;;;;;;6153020;23;20491;-71
2023/08/21 07:42:45;;;;;;;0.80;0.80;;;24.20;99.90;;;;;;6154324;23;20483;-71
2023/08/21 07:45:13;;;;;;;1.47;0.87;;;24.30;99.90;;;;;;6153459;23;20447;-72
2023/08/21 07:47:39;;;;;;;1.13;0.87;;;24.10;99.90;;;;;;6153164;23;20426;-72
2023/08/21 07:50:07;;;;;;;1.63;0.90;;;23.80;99.90;;;;;;6153106;23;20426;-72
2023/08/21 07:52:35;;;;;;;3.60;1.20;;;23.40;99.90;;;;;;6153883;23;20422;-71
2023/08/21 07:55:02;;;;;;;2.07;1.50;;;23.00;99.90;;;;;;6153184;23;20442;-71
2023/08/21 07:57:30;;;;;;;6.50;1.30;;;22.80;99.90;;;;;;6153946;23;20429;-71
2023/08/21 07:59:57;;;;;;;0.97;0.97;;;22.50;99.90;;;;;;6153224;23;20441;-71
2023/08/21 08:02:25;;;;;;;1.20;1.07;;;22.40;99.90;;;;;;6153682;23;20428;-70
2023/08/21 08:04:52;;;;;;;7.67;1.80;;;22.30;99.90;;;;;;6153302;23;20508;-71
2023/08/21 08:07:19;;;;;;;1.80;1.10;;;22.30;99.90;;;;;;6152956;23;20424;-71
2023/08/21 08:09:46;;;;;;;2.40;1.57;;;22.20;99.90;;;;;;6153840;23;20519;-70
2023/08/21 08:12:13;;;;;;;4.33;1.20;;;22.10;99.90;;;;;;6153980;23;20447;-71
2023/08/21 08:14:40;;;;;;;3.20;0.93;;;22.10;99.90;;;;;;6153103;23;20451;-71
2023/08/21 08:17:07;;;;;;;1.17;1.07;;;22.10;99.90;;;;;;6153329;23;20422;-71
2023/08/21 08:19:35;;;;;;;1.40;1.40;;;22.10;99.90;;;;;;6152705;23;20521;-70
2023/08/21 08:22:01;;;;;;;1.17;1.17;;;22.10;99.90;;;;;;6153650;23;20429;-71
2023/08/21 08:24:28;;;;;;;0.97;0.97;;;22.10;99.90;;;;;;6153110;23;20971;-70
2023/08/21 08:26:55;;;;;;;1.03;0.80;;;22.10;99.90;;;;;;6154053;23;20465;-70
2023/08/21 08:29:22;;;;;;;1.20;1.20;;;22.20;99.90;;;;;;6152664;23;20533;-71
2023/08/21 08:31:48;;;;;;;1.30;1.20;;;22.30;99.90;;;;;;6153428;23;20425;-71
2023/08/21 08:34:17;;;;;;;0.83;0.83;;;22.30;99.90;;;;;;6152298;23;20447;-72
2023/08/21 08:36:45;;;;;;;1.23;1.17;;;22.40;99.90;;;;;;6153022;23;20477;-72
2023/08/21 08:39:12;;;;;;;3.57;1.00;;;22.40;99.90;;;;;;6152979;23;20426;-71
2023/08/21 08:41:48;;;;;;;1.10;1.00;;;22.40;99.90;;;;;;6153338;23;20422;-72
2023/08/21 08:44:16;;;;;;;4.90;1.10;;;22.40;99.90;;;;;;6153110;23;20466;-72
2023/08/21 08:46:44;;;;;;;1.23;1.20;;;22.50;99.90;;;;;;6151938;23;20422;-71
2023/08/21 08:49:11;;;;;;;1.20;1.10;;;22.50;99.90;;;;;;6151978;23;20419;-72
2023/08/21 08:51:40;;;;;;;0.90;0.90;;;22.60;99.90;;;;;;6153982;23;20419;-72
2023/08/21 08:54:08;;;;;;;1.00;1.00;;;22.60;99.90;;;;;;6152121;23;20483;-72
2023/08/21 08:56:35;;;;;;;1.00;1.00;;;22.60;99.90;;;;;;6153744;23;20518;-72
2023/08/21 08:59:02;;;;;;;3.07;0.87;;;22.60;99.90;;;;;;6153503;23;20768;-72
2023/08/21 09:01:29;;;;;;;0.80;0.80;;;22.60;99.90;;;;;;6152206;23;20438;-72
2023/08/21 09:03:56;;;;;;;1.90;0.87;;;22.60;99.90;;;;;;6151566;23;20447;-71
2023/08/21 09:06:22;;;;;;;0.83;0.83;;;22.60;99.90;;;;;;6151806;23;20993;-71
2023/08/21 09:08:56;;;;;;;0.80;0.70;;;22.70;99.90;;;;;;6162707;23;20723;-71
2023/08/21 09:11:24;;;;;;;0.77;0.77;;;22.80;99.90;;;;;;6151729;23;20425;-72
2023/08/21 09:13:53;;;;;;;0.70;0.70;;;22.80;99.90;;;;;;6151901;23;20427;-71
2023/08/21 09:16:20;;;;;;;1.80;1.70;;;22.70;99.90;;;;;;6152334;23;20892;-72
2023/08/21 09:18:50;;;;;;;0.70;0.70;;;22.80;99.90;;;;;;6152583;23;20419;-72
2023/08/21 09:21:18;;;;;;;1.13;0.90;;;22.90;99.90;;;;;;6151822;23;20431;-72
2023/08/21 09:23:45;;;;;;;3.60;0.70;;;22.90;99.90;;;;;;6152529;23;20419;-72
2023/08/21 09:26:19;;;;;;;2.10;0.80;;;23.00;99.90;;;;;;6153014;23;20465;-72
2023/08/21 09:28:47;;;;;;;0.70;0.70;;;22.90;99.90;;;;;;6152804;23;20408;-72
2023/08/21 09:31:17;;;;;;;0.63;0.63;;;23.00;99.90;;;;;;6152648;23;20419;-72
2023/08/21 09:33:43;;;;;;;1.27;0.80;;;23.00;99.90;;;;;;6152382;23;20501;-72
2023/08/21 09:36:11;;;;;;;0.50;0.50;;;23.00;99.90;;;;;;6151014;23;20415;-71
2023/08/21 09:38:40;;;;;;;0.90;0.90;;;23.00;99.90;;;;;;6152946;23;20424;-71
2023/08/21 09:41:07;;;;;;;0.43;0.43;;;23.10;99.90;;;;;;6152789;23;20421;-71
2023/08/21 09:43:42;;;;;;;2.10;0.77;;;23.20;99.90;;;;;;6152316;23;20419;-71
2023/08/21 09:46:16;;;;;;;1.60;0.60;;;23.20;99.90;;;;;;6152317;23;20806;-71
2023/08/21 09:48:44;;;;;;;0.90;0.50;;;23.10;99.90;;;;;;6161443;23;20767;-71
2023/08/21 09:51:11;;;;;;;0.77;0.77;;;23.00;99.90;;;;;;6152726;23;20430;-71
2023/08/21 09:53:38;;;;;;;1.67;1.57;;;23.00;99.90;;;;;;6152437;23;20474;-71
2023/08/21 09:56:06;;;;;;;1.00;1.00;;;23.10;99.90;;;;;;6152165;23;20416;-71
2023/08/21 09:58:33;;;;;;;3.03;0.80;;;23.20;99.90;;;;;;6153612;23;20426;-72
2023/08/21 10:01:02;;;;;;;0.50;0.50;;;23.20;99.90;;;;;;6157625;23;20443;-71
2023/08/21 10:03:32;;;;;;;0.70;0.70;;;23.30;99.90;;;;;;6153081;23;20420;-71
2023/08/21 10:06:00;;;;;;;1.50;0.90;;;23.30;99.90;;;;;;6154432;23;20443;-71
2023/08/21 10:08:29;;;;;;;2.73;0.93;;;23.40;99.90;;;;;;6161728;23;20418;-71
2023/08/21 10:10:59;;;;;;;0.93;0.67;;;23.40;99.90;;;;;;6162249;23;20422;-71
2023/08/21 10:13:26;;;;;;;0.80;0.80;;;23.40;99.90;;;;;;6162989;23;20500;-71
2023/08/21 10:15:52;;;;;;;0.50;0.50;;;23.40;99.90;;;;;;6152229;23;20479;-69
2023/08/21 10:18:21;;;;;;;1.90;1.03;;;23.30;99.90;;;;;;6152841;23;20427;-71
2023/08/21 10:20:49;;;;;;;2.73;0.97;;;23.50;99.90;;;;;;6153330;23;20420;-72
2023/08/21 10:23:25;;;;;;;0.33;0.33;;;23.50;99.90;;;;;;6152273;23;20430;-71
2023/08/21 10:25:56;;;;;;;0.33;0.33;;;23.50;99.90;;;;;;6152919;23;20942;-72
2023/08/21 10:28:23;;;;;;;0.60;0.60;;;23.50;99.90;;;;;;6150665;23;20407;-66
2023/08/21 10:30:50;;;;;;;6.57;0.70;;;23.50;99.90;;;;;;6149391;23;20419;-72
2023/08/21 10:33:16;;;;;;;0.30;0.30;;;23.60;99.90;;;;;;6151848;23;21084;-70
2023/08/21 10:35:43;;;;;;;0.73;0.57;;;23.60;99.90;;;;;;6150215;23;20439;-72
2023/08/21 10:38:13;;;;;;;0.40;0.40;;;23.60;99.90;;;;;;6152042;23;20903;-72
2023/08/21 10:40:41;;;;;;;0.97;0.80;;;23.70;99.90;;;;;;6152661;23;20510;-71
2023/08/21 10:43:38;;;;;;;0.80;0.80;;;23.70;99.90;;;;;;6152899;23;20427;-71
2023/08/21 10:46:05;;;;;;;0.83;0.83;;;23.70;99.90;;;;;;6150943;23;20779;-70
2023/08/21 10:48:31;;;;;;;0.80;0.80;;;23.50;99.90;;;;;;6153200;23;20483;-71
2023/08/21 10:51:01;;;;;;;0.50;0.50;;;23.50;99.90;;;;;;6153717;23;20420;-71
2023/08/21 10:53:29;;;;;;;0.70;0.70;;;23.50;99.90;;;;;;6154917;23;20426;-70
2023/08/21 10:55:56;;;;;;;1.23;0.70;;;23.70;99.90;;;;;;6154615;23;20490;-72
2023/08/21 10:58:23;;;;;;;0.90;0.90;;;23.70;99.90;;;;;;6153826;23;20422;-70
2023/08/21 11:00:57;;;;;;;1.63;0.60;;;23.70;99.90;;;;;;6154098;23;20428;-70
2023/08/21 11:03:24;;;;;;;0.40;0.40;;;23.70;99.90;;;;;;6154291;23;20430;-71
2023/08/21 11:06:02;;;;;;;0.40;0.40;;;23.80;99.90;;;;;;6154536;23;20457;-71
2023/08/21 11:08:30;;;;;;;0.57;0.50;;;23.80;99.90;;;;;;6154363;23;20816;-70
2023/08/21 11:10:57;;;;;;;0.83;0.70;;;23.70;99.90;;;;;;6153408;23;20419;-72
2023/08/21 11:13:24;;;;;;;0.47;0.47;;;23.80;99.90;;;;;;6153697;23;20425;-71
2023/08/21 11:15:58;;;;;;;0.57;0.40;;;23.80;99.90;;;;;;6155622;23;20782;-70
2023/08/21 11:18:31;;;;;;;0.67;0.67;;;23.80;99.90;;;;;;6154996;23;20409;-71
2023/08/21 11:21:05;;;;;;;0.70;0.40;;;23.90;99.90;;;;;;6155015;23;20455;-72
2023/08/21 11:23:35;;;;;;;0.40;0.40;;;24.00;99.90;;;;;;6154273;23;20408;-72
2023/08/21 11:26:03;;;;;;;0.60;0.60;;;24.00;99.90;;;;;;6153070;23;20827;-72
2023/08/21 11:28:31;;;;;;;0.93;0.40;;;24.00;99.90;;;;;;6154655;23;20433;-73
2023/08/21 11:30:58;;;;;;;0.50;0.50;;;24.00;99.90;;;;;;6154661;23;20508;-72
2023/08/21 11:33:27;;;;;;;2.93;0.50;;;23.90;99.90;;;;;;6154865;23;20426;-72
2023/08/21 11:35:54;;;;;;;1.70;0.50;;;24.00;99.90;;;;;;6153742;23;20451;-72
2023/08/21 11:38:22;;;;;;;0.37;0.30;;;23.90;99.90;;;;;;6152515;23;20426;-73
2023/08/21 11:40:57;;;;;;;0.33;0.33;;;24.00;99.90;;;;;;6154687;23;20420;-70
2023/08/21 11:43:35;;;;;;;4.20;0.70;;;24.00;99.90;;;;;;6154462;23;20403;-71
2023/08/21 11:46:02;;;;;;;0.37;0.37;;;24.10;99.90;;;;;;6154514;23;20814;-72
2023/08/21 11:48:30;;;;;;;0.70;0.60;;;24.20;99.90;;;;;;6153227;23;20505;-72
2023/08/21 11:50:57;;;;;;;1.90;0.80;;;24.30;99.90;;;;;;6154466;23;20451;-73
2023/08/21 11:53:35;;;;;;;0.43;0.43;;;24.20;99.90;;;;;;6154930;23;20443;-72
2023/08/21 11:56:04;;;;;;;0.90;0.40;;;24.30;99.90;;;;;;6154613;23;20939;-71
2023/08/21 11:58:31;;;;;;;1.33;0.67;;;24.30;99.90;;;;;;6153514;23;20429;-71
2023/08/21 12:01:04;;;;;;;0.50;0.50;;;24.40;99.90;;;;;;6154963;23;20433;-70
2023/08/21 12:03:32;;;;;;;1.07;0.80;;;24.40;99.90;;;;;;6155830;23;20404;-74
2023/08/21 12:05:58;;;;;;;0.53;0.53;;;24.40;99.90;;;;;;6154471;23;20525;-73
2023/08/21 12:08:25;;;;;;;1.53;0.50;;;24.40;99.90;;;;;;6161264;23;20426;-67
2023/08/21 12:10:52;;;;;;;0.60;0.60;;;24.50;99.90;;;;;;6157970;23;20912;-71
2023/08/21 12:13:20;;;;;;;0.70;0.70;;;24.50;99.90;;;;;;6157681;23;20474;-71
2023/08/21 12:15:47;;;;;;;0.30;0.30;;;24.50;99.90;;;;;;6163296;23;20442;-72
2023/08/21 12:18:14;;;;;;;3.87;0.87;;;24.50;99.90;;;;;;6160186;23;20425;-71
2023/08/21 12:20:40;;;;;;;0.53;0.53;;;24.40;99.90;;;;;;6160612;23;20420;-72
2023/08/21 12:23:07;;;;;;;1.10;0.73;;;24.50;99.90;;;;;;6163003;23;20506;-71
2023/08/21 12:25:34;;;;;;;0.50;0.50;;;24.60;99.90;;;;;;6161333;23;20454;-67
2023/08/21 12:28:01;;;;;;;0.70;0.70;;;24.70;99.90;;;;;;6163310;23;20417;-71
2023/08/21 12:30:29;;;;;;;2.97;0.80;;;24.70;99.90;;;;;;6168368;23;20429;-72
2023/08/21 12:32:55;;;;;;;0.70;0.70;;;24.70;99.90;;;;;;6163559;23;20757;-71
2023/08/21 12:35:22;;;;;;;0.30;0.30;;;24.70;99.90;;;;;;6166998;23;20453;-68
2023/08/21 12:37:49;;;;;;;0.97;0.40;;;24.70;99.90;;;;;;6167146;23;20957;-72
2023/08/21 12:40:15;;;;;;;0.30;0.30;;;24.70;99.90;;;;;;6156024;23;20756;-71
2023/08/21 12:42:42;;;;;;;0.70;0.60;;;24.70;99.90;;;;;;6153993;23;20689;-72
2023/08/21 12:45:11;;;;;;;0.37;0.37;;;24.70;99.90;;;;;;6153650;23;20444;-71
2023/08/21 12:47:39;;;;;;;1.30;0.40;;;24.70;99.90;;;;;;6153740;23;20487;-71
2023/08/21 12:50:07;;;;;;;0.70;0.70;;;24.80;99.90;;;;;;6152856;23;20432;-71
2023/08/21 12:52:33;;;;;;;0.63;0.63;;;24.80;99.90;;;;;;6153525;23;20420;-72
2023/08/21 12:55:03;;;;;;;0.60;0.60;;;24.80;99.90;;;;;;6154275;23;20839;-71
2023/08/21 12:57:30;;;;;;;0.83;0.57;;;24.80;99.90;;;;;;6154848;23;20415;-71
2023/08/21 12:59:57;;;;;;;0.50;0.50;;;24.80;99.90;;;;;;6152421;23;20420;-72
2023/08/21 13:02:24;;;;;;;0.70;0.70;;;24.80;99.90;;;;;;6153401;23;20419;-71
2023/08/21 13:04:52;;;;;;;0.57;0.57;;;24.70;99.90;;;;;;6162155;23;20470;-72
2023/08/21 13:07:19;;;;;;;0.60;0.60;;;24.70;99.90;;;;;;6153317;23;20451;-69
2023/08/21 13:09:45;;;;;;;0.70;0.70;;;24.70;99.90;;;;;;6152967;23;20422;-71
2023/08/21 13:12:12;;;;;;;0.43;0.43;;;24.70;99.90;;;;;;6153399;23;20427;-71
2023/08/21 13:14:39;;;;;;;0.47;0.47;;;24.70;99.90;;;;;;6153164;23;20847;-71
2023/08/21 13:17:06;;;;;;;0.30;0.30;;;24.80;99.90;;;;;;6151741;23;20502;-71
2023/08/21 13:19:32;;;;;;;0.30;0.30;;;24.90;99.90;;;;;;6151210;23;20421;-70
2023/08/21 13:22:00;;;;;;;0.47;0.47;;;24.90;99.90;;;;;;6152759;23;20431;-71
2023/08/21 13:24:28;;;;;;;0.50;0.50;;;24.90;99.90;;;;;;6152843;23;20770;-72
2023/08/21 13:26:55;;;;;;;0.60;0.60;;;24.90;99.90;;;;;;6153113;23;20975;-73
2023/08/21 13:29:22;;;;;;;0.60;0.60;;;24.90;99.90;;;;;;6152885;23;20419;-71
2023/08/21 13:31:49;;;;;;;0.80;0.80;;;24.90;99.90;;;;;;6154156;23;20423;-73
2023/08/21 13:34:16;;;;;;;0.60;0.60;;;24.90;99.90;;;;;;6153432;23;20445;-73
2023/08/21 13:36:43;;;;;;;0.77;0.60;;;24.90;99.90;;;;;;6153012;23;20421;-73
2023/08/21 13:39:15;;;;;;;1.23;0.50;;;24.80;99.90;;;;;;6151953;23;20934;-72
2023/08/21 13:41:41;;;;;;;2.73;0.90;;;24.90;99.90;;;;;;6153192;23;20408;-73
2023/08/21 13:44:08;;;;;;;1.33;0.73;;;24.80;99.90;;;;;;6151495;23;20426;-71
2023/08/21 13:46:35;;;;;;;0.90;0.90;;;24.80;99.90;;;;;;6152954;23;20447;-72
2023/08/21 13:49:02;;;;;;;1.00;1.00;;;24.90;99.90;;;;;;6152820;23;20427;-70
2023/08/21 13:51:29;;;;;;;1.10;1.10;;;24.90;99.90;;;;;;6153732;23;20647;-72
2023/08/21 13:53:55;;;;;;;0.67;0.40;;;24.90;99.90;;;;;;6153452;23;20421;-71
2023/08/21 13:56:23;;;;;;;0.60;0.60;;;24.90;99.90;;;;;;6154010;23;20418;-71
2023/08/21 13:58:50;;;;;;;0.80;0.33;;;24.90;99.90;;;;;;6153166;23;20529;-71
2023/08/21 14:01:17;;;;;;;1.90;0.57;;;24.90;99.90;;;;;;6153309;23;20750;-74
2023/08/21 14:03:43;;;;;;;0.67;0.67;;;24.90;99.90;;;;;;6152490;23;20423;-71
2023/08/21 14:06:11;;;;;;;0.50;0.50;;;24.90;99.90;;;;;;6152104;23;20476;-73
2023/08/21 14:08:38;;;;;;;0.60;0.60;;;25.00;99.90;;;;;;6153778;23;20426;-72
2023/08/21 14:11:05;;;;;;;0.60;0.60;;;25.00;99.90;;;;;;6152305;23;20428;-70
2023/08/21 14:13:33;;;;;;;0.90;0.90;;;25.00;99.90;;;;;;6152819;23;20419;-72
2023/08/21 14:16:00;;;;;;;1.90;0.90;;;25.00;99.90;;;;;;6149692;23;20787;-71
2023/08/21 14:18:27;;;;;;;0.60;0.60;;;25.00;99.90;;;;;;6152022;23;20421;-70
2023/08/21 14:20:53;;;;;;;0.63;0.63;;;25.00;99.90;;;;;;6153879;23;20422;-72
2023/08/21 14:23:20;;;;;;;0.50;0.50;;;25.10;99.90;;;;;;6153440;23;20454;-71
2023/08/21 14:25:47;;;;;;;0.80;0.80;;;25.10;99.90;;;;;;6155385;23;20443;-72
2023/08/21 14:28:14;;;;;;;1.60;0.77;;;25.00;99.90;;;;;;6155039;23;20773;-71
2023/08/21 14:30:42;;;;;;;0.70;0.70;;;25.00;99.90;;;;;;6155046;23;20422;-72
2023/08/21 14:33:09;;;;;;;0.53;0.53;;;25.00;99.90;;;;;;6154737;23;21162;-72
2023/08/21 14:35:36;;;;;;;0.97;0.97;;;25.00;99.90;;;;;;6153959;23;20766;-71
2023/08/21 14:38:03;;;;;;;1.13;1.13;;;25.00;99.90;;;;;;6154989;23;20418;-72
2023/08/21 14:40:29;;;;;;;1.90;0.90;;;25.00;99.90;;;;;;6153674;23;20428;-69
2023/08/21 14:42:56;;;;;;;0.53;0.53;;;25.00;99.90;;;;;;6154112;23;20426;-71
2023/08/21 14:45:23;;;;;;;0.50;0.50;;;25.00;99.90;;;;;;6152990;23;20439;-70
2023/08/21 14:47:51;;;;;;;2.63;0.73;;;25.00;99.90;;;;;;6152450;23;20455;-70
2023/08/21 14:50:17;;;;;;;0.60;0.60;;;25.00;99.90;;;;;;6152031;23;20418;-71
2023/08/21 14:52:44;;;;;;;0.90;0.57;;;25.00;99.90;;;;;;6153491;23;20422;-67
2023/08/21 14:55:11;;;;;;;1.50;0.90;;;24.90;99.90;;;;;;6155150;23;20444;-71
2023/08/21 14:57:38;;;;;;;4.13;0.70;;;24.90;99.90;;;;;;6153593;23;20425;-71
2023/08/21 15:00:05;;;;;;;0.60;0.60;;;24.90;99.90;;;;;;6153597;23;20821;-70
2023/08/21 15:02:32;;;;;;;1.50;0.67;;;24.90;99.90;;;;;;6153431;23;20942;-72
2023/08/21 15:05:04;;;;;;;1.90;0.67;;;24.90;99.90;;;;;;6153920;23;20439;-72
2023/08/21 15:07:31;;;;;;;0.90;0.90;;;24.90;99.90;;;;;;6162958;23;20445;-72
2023/08/21 15:09:58;;;;;;;0.50;0.50;;;24.90;99.90;;;;;;6153185;23;20424;-72
2023/08/21 15:12:25;;;;;;;0.93;0.60;;;25.00;99.90;;;;;;6154572;23;20421;-71
2023/08/21 15:14:51;;;;;;;0.67;0.67;;;25.00;99.90;;;;;;6153269;23;20464;-71
2023/08/21 15:17:19;;;;;;;0.67;0.67;;;25.00;99.90;;;;;;6154471;23;20488;-72
2023/08/21 15:19:46;;;;;;;0.70;0.70;;;25.00;99.90;;;;;;6152827;23;20977;-71
2023/08/21 15:22:14;;;;;;;0.60;0.50;;;25.00;99.90;;;;;;6154552;23;20790;-72
2023/08/21 15:24:41;;;;;;;0.90;0.90;;;25.00;99.90;;;;;;6152772;23;20440;-71
2023/08/21 15:27:08;;;;;;;0.67;0.67;;;25.00;99.90;;;;;;6153227;23;20478;-72
2023/08/21 15:29:34;;;;;;;4.87;1.00;;;25.00;99.90;;;;;;6152120;23;20428;-71
2023/08/21 15:32:01;;;;;;;0.77;0.70;;;25.00;99.90;;;;;;6154179;23;20429;-70
2023/08/21 15:34:28;;;;;;;0.40;0.40;;;25.00;99.90;;;;;;6153537;23;20446;-70
2023/08/21 15:36:56;;;;;;;0.70;0.70;;;25.00;99.90;;;;;;6150524;23;20419;-69
2023/08/21 15:39:24;;;;;;;0.53;0.53;;;25.00;99.90;;;;;;6149319;23;20456;-69
2023/08/21 15:41:51;;;;;;;0.50;0.40;;;25.00;99.90;;;;;;6152456;23;20941;-71
2023/08/21 15:44:17;;;;;;;0.70;0.70;;;25.00;99.90;;;;;;6153101;23;20439;-70
2023/08/21 15:46:44;;;;;;;0.60;0.60;;;25.00;99.90;;;;;;6149517;23;20974;-71
2023/08/21 15:49:11;;;;;;;1.13;0.80;;;25.00;99.90;;;;;;6153593;23;20738;-71
2023/08/21 15:51:38;;;;;;;0.60;0.60;;;25.00;99.90;;;;;;6154555;23;20428;-71
2023/08/21 15:54:05;;;;;;;0.60;0.60;;;25.00;99.90;;;;;;6153231;23;20502;-71
2023/08/21 15:56:33;;;;;;;0.73;0.73;;;25.00;99.90;;;;;;6153398;23;20421;-71
2023/08/21 15:59:00;;;;;;;0.67;0.63;;;25.00;99.90;;;;;;6153856;23;20428;-71
2023/08/21 16:01:26;;;;;;;1.50;0.87;;;25.00;99.90;;;;;;6152104;23;20420;-71
2023/08/21 16:03:53;;;;;;;1.80;0.63;;;25.00;99.90;;;;;;6153670;23;20428;-73
2023/08/21 16:06:20;;;;;;;0.63;0.63;;;25.00;99.90;;;;;;6152069;23;20766;-71
2023/08/21 16:08:46;;;;;;;0.60;0.60;;;25.00;99.90;;;;;;6153787;23;20222;-71
2023/08/21 16:11:13;;;;;;;0.60;0.60;;;25.00;99.90;;;;;;6154648;23;20426;-73
2023/08/21 16:13:41;;;;;;;0.60;0.60;;;25.00;99.90;;;;;;6152310;23;20542;-72
2023/08/21 16:16:08;;;;;;;0.73;0.73;;;24.90;99.90;;;;;;6152581;23;20462;-71
2023/08/21 16:18:37;;;;;;;0.40;0.40;;;24.90;99.90;;;;;;6153058;23;20417;-71
2023/08/21 16:21:04;;;;;;;0.60;0.60;;;24.80;99.90;;;;;;6153663;23;20750;-71
2023/08/21 16:23:31;;;;;;;0.67;0.67;;;24.90;99.90;;;;;;6153718;23;20418;-71
2023/08/21 16:25:57;;;;;;;3.50;0.67;;;24.90;99.90;;;;;;6153132;23;20441;-71
2023/08/21 16:28:24;;;;;;;0.63;0.63;;;24.80;99.90;;;;;;6153883;23;20448;-72
2023/08/21 16:30:52;;;;;;;0.73;0.37;;;24.80;99.90;;;;;;6153174;23;20433;-71
2023/08/21 16:33:19;;;;;;;0.50;0.50;;;24.80;99.90;;;;;;6153438;23;20427;-70
2023/08/21 16:35:45;;;;;;;0.60;0.50;;;24.80;99.90;;;;;;6152692;23;20442;-71
2023/08/21 16:38:12;;;;;;;0.70;0.70;;;24.70;99.90;;;;;;6153206;23;20418;-72
2023/08/21 16:40:38;;;;;;;2.00;0.60;;;24.70;99.90;;;;;;6153195;23;20422;-72
2023/08/21 16:43:05;;;;;;;0.87;0.80;;;24.60;99.90;;;;;;6153284;23;20420;-70
2023/08/21 16:45:32;;;;;;;0.80;0.80;;;24.60;99.90;;;;;;6150845;23;20442;-71
2023/08/21 16:48:00;;;;;;;0.77;0.50;;;24.50;99.90;;;;;;6152975;23;20471;-71
2023/08/21 16:50:26;;;;;;;2.63;0.80;;;24.50;99.90;;;;;;6152657;23;20430;-72